KUOX/UOX METAR and TAF weather

Enter ICAO airport designator
Station Type Date Time Source
KUOX METAR 2020/06/03 22:15 UTC NOAA

KUOX 032215Z AUTO 15009KT 9SM CLR 27/22 A2991 RMK AO2


Station Type Date Time Source
KUOX Decoded METAR 2020/06/03 22:15 UTC NOAA

Oxford, University-Oxford Airport, MS, United States (KUOX) 34-23-04N 089-32-08W
Jun 03, 2020 - 06:15 PM EDT / 2020.06.03 2215 UTC
Wind: from the SSE (150 degrees) at 10 MPH (9 KT):0
Visibility: 9 mile(s):0
Sky conditions: clear
Temperature: 80 F (27 C)
Dew Point: 71 F (22 C)
Relative Humidity: 74%
Pressure (altimeter): 29.91 in. Hg (1012 hPa)
ob: KUOX 032215Z AUTO 15009KT 9SM CLR 27/22 A2991 RMK AO2
cycle: 22

Station Type Date Time Source
KUOX TAF UTC NOAA

Error!

Example: see airport list